Time;durP1;ratioP1;P1;durP2;ratioP2;P2;SDS_P1;SDS_P2;PMS_P1;PMS_P2;Temp;Humidity;BMP_temperature;BMP_pressure;BME280_temperature;BME280_humidity;BME280_pressure;Samples;Min_cycle;Max_cycle;Signal;HPM_P1;HPM_P2
2021/03/13 00:00:10;;;;;;;18.43;14.63;;;;;;;0.90;100.00;90426.88;5014389;28;20255;-91
2021/03/13 00:02:38;;;;;;;17.83;14.17;;;;;;;0.70;100.00;90471.34;5014639;28;20204;-90
2021/03/13 00:05:06;;;;;;;16.50;14.47;;;;;;;0.58;100.00;90457.78;5014855;28;20680;-91
2021/03/13 00:07:32;;;;;;;19.83;14.30;;;;;;;0.80;100.00;90348.50;5014980;28;20200;-90
2021/03/13 00:10:00;;;;;;;17.70;14.23;;;;;;;0.99;100.00;90312.72;5014799;28;20235;-91
2021/03/13 00:12:27;;;;;;;39.87;26.73;;;;;;;0.71;100.00;90369.59;5014565;28;20642;-90
2021/03/13 00:14:54;;;;;;;24.53;20.57;;;;;;;0.70;100.00;90347.38;5014319;28;20246;-91
2021/03/13 00:17:21;;;;;;;18.83;15.37;;;;;;;0.68;100.00;90322.78;5014574;28;20259;-91
2021/03/13 00:19:48;;;;;;;18.67;14.50;;;;;;;0.44;100.00;90341.16;5014167;28;20263;-91
2021/03/13 00:22:15;;;;;;;16.70;13.43;;;;;;;0.59;100.00;90275.19;5014501;28;20200;-90
2021/03/13 00:24:43;;;;;;;19.93;15.87;;;;;;;0.52;100.00;90243.63;5013942;28;20250;-90
2021/03/13 00:27:11;;;;;;;20.43;16.17;;;;;;;0.62;100.00;90138.59;5014100;28;20210;-89
2021/03/13 00:29:38;;;;;;;22.20;17.03;;;;;;;0.75;100.00;90074.63;5014053;28;20315;-90
2021/03/13 00:32:05;;;;;;;19.37;16.57;;;;;;;0.87;100.00;90095.88;5014057;28;20286;-91
2021/03/13 00:34:32;;;;;;;18.47;14.97;;;;;;;0.73;100.00;90147.22;5014167;28;20231;-91
2021/03/13 00:36:59;;;;;;;18.90;14.43;;;;;;;0.63;100.00;90139.41;5013908;28;20246;-91
2021/03/13 00:39:26;;;;;;;18.27;13.33;;;;;;;0.66;100.00;90088.03;5013873;28;20219;-91
2021/03/13 00:41:53;;;;;;;14.77;13.03;;;;;;;0.65;100.00;90055.44;5013703;28;20326;-90
2021/03/13 00:44:23;;;;;;;18.10;13.27;;;;;;;0.98;100.00;89960.50;5013773;28;20234;-90
2021/03/13 00:46:50;;;;;;;19.97;16.77;;;;;;;0.92;100.00;90032.06;5014031;28;20262;-90
2021/03/13 00:49:17;;;;;;;15.23;11.73;;;;;;;0.73;100.00;90069.72;5013989;28;20249;-91
2021/03/13 00:51:44;;;;;;;14.97;13.27;;;;;;;0.82;100.00;89998.44;5013585;28;20195;-91
2021/03/13 00:54:11;;;;;;;14.97;12.97;;;;;;;0.95;100.00;89966.97;5013673;28;20195;-90
2021/03/13 00:56:38;;;;;;;18.30;15.10;;;;;;;0.90;100.00;89997.97;5013931;28;20257;-92
2021/03/13 00:59:05;;;;;;;19.87;14.73;;;;;;;0.82;100.00;90005.41;5013739;28;20223;-91
2021/03/13 01:01:32;;;;;;;18.20;14.20;;;;;;;0.82;100.00;89975.19;5013703;28;20199;-91
2021/03/13 01:03:59;;;;;;;15.63;12.97;;;;;;;0.95;100.00;89928.22;5013462;28;20227;-92
2021/03/13 01:06:26;;;;;;;14.50;13.00;;;;;;;1.04;100.00;89907.81;5013768;28;20555;-92
2021/03/13 01:08:53;;;;;;;16.13;12.23;;;;;;;0.91;100.00;89940.09;5013375;28;20286;-90
2021/03/13 01:11:20;;;;;;;15.40;13.43;;;;;;;0.89;100.00;89903.38;5013670;28;20226;-92
2021/03/13 01:13:47;;;;;;;15.63;13.37;;;;;;;0.93;100.00;89876.00;5013380;28;20195;-91
2021/03/13 01:16:14;;;;;;;18.57;12.50;;;;;;;1.03;100.00;89857.16;5013244;28;20289;-92
2021/03/13 01:18:41;;;;;;;18.40;11.83;;;;;;;0.99;100.00;89897.47;5013198;28;20320;-91
2021/03/13 01:21:08;;;;;;;14.53;12.63;;;;;;;1.05;100.00;89883.53;5013176;28;20290;-90
2021/03/13 01:23:35;;;;;;;15.37;12.87;;;;;;;0.92;100.00;89940.84;5013213;28;20230;-91
2021/03/13 01:26:02;;;;;;;15.37;12.07;;;;;;;0.92;100.00;89957.13;5013783;28;20199;-91
2021/03/13 01:28:28;;;;;;;17.10;14.37;;;;;;;0.86;100.00;89970.28;5013455;28;20676;-91
2021/03/13 01:30:55;;;;;;;18.60;14.57;;;;;;;0.88;100.00;89927.69;5013148;28;20285;-91
2021/03/13 01:33:23;;;;;;;17.23;13.90;;;;;;;0.98;100.00;89898.50;5013190;28;20215;-91
2021/03/13 01:35:51;;;;;;;26.67;18.67;;;;;;;1.05;100.00;89880.16;5013320;28;20728;-90
2021/03/13 01:38:17;;;;;;;19.57;15.70;;;;;;;1.03;100.00;89934.66;5013334;28;20600;-90
2021/03/13 01:40:44;;;;;;;16.00;12.97;;;;;;;0.73;100.00;90022.41;5012812;28;20300;-89
2021/03/13 01:43:11;;;;;;;18.10;13.60;;;;;;;0.79;100.00;89985.25;5013487;28;20290;-91
2021/03/13 01:45:38;;;;;;;18.07;13.83;;;;;;;0.85;100.00;89950.66;5017493;28;20260;-89
2021/03/13 01:48:06;;;;;;;17.67;13.37;;;;;;;0.80;100.00;89955.84;5017044;28;20290;-90
2021/03/13 01:50:34;;;;;;;17.40;13.97;;;;;;;0.85;100.00;89928.19;5017028;28;20253;-91
2021/03/13 01:53:02;;;;;;;16.70;14.60;;;;;;;0.97;100.00;89891.78;5017416;28;20210;-91
2021/03/13 01:55:29;;;;;;;17.27;14.60;;;;;;;1.07;100.00;89932.34;5017111;28;20290;-93
2021/03/13 01:57:56;;;;;;;36.83;32.17;;;;;;;1.01;100.00;90019.44;5016986;28;20204;-91
2021/03/13 02:00:25;;;;;;;24.27;20.97;;;;;;;0.73;100.00;90149.78;5017113;28;20219;-90
2021/03/13 02:02:52;;;;;;;17.70;15.07;;;;;;;0.69;100.00;90157.25;5016829;28;20294;-91
2021/03/13 02:05:22;;;;;;;19.13;15.53;;;;;;;0.62;100.00;90138.59;5016877;28;20277;-89
2021/03/13 02:08:02;;;;;;;23.40;15.27;;;;;;;0.69;100.00;90059.13;5016684;28;20200;-89
2021/03/13 02:10:38;;;;;;;17.77;14.50;;;;;;;0.69;100.00;90069.44;5016732;28;20183;-89
2021/03/13 02:13:16;;;;;;;22.07;15.27;;;;;;;0.63;100.00;90085.16;5016662;28;20187;-89
2021/03/13 02:15:53;;;;;;;15.50;13.87;;;;;;;0.55;100.00;90049.47;5016604;28;20687;-91
2021/03/13 02:18:31;;;;;;;17.83;15.20;;;;;;;0.56;100.00;90009.72;5016520;28;20195;-90
2021/03/13 02:21:07;;;;;;;18.13;13.43;;;;;;;0.68;100.00;89972.31;5016836;28;20246;-89
2021/03/13 02:23:44;;;;;;;17.87;13.87;;;;;;;0.64;100.00;90006.66;5016623;28;20234;-89
2021/03/13 02:26:30;;;;;;;19.37;14.77;;;;;;;0.59;100.00;90024.69;5016791;28;20283;-89
2021/03/13 02:29:12;;;;;;;19.20;15.27;;;;;;;0.54;100.00;89996.28;5016807;28;20195;-90
2021/03/13 02:31:42;;;;;;;21.13;16.40;;;;;;;0.62;100.00;89926.81;5016353;28;20656;-89
2021/03/13 02:34:11;;;;;;;19.80;14.80;;;;;;;0.53;100.00;89899.97;5016178;28;20199;-89
2021/03/13 02:36:39;;;;;;;20.83;15.87;;;;;;;0.44;100.00;89894.50;5016146;28;20222;-90
2021/03/13 02:39:08;;;;;;;20.30;16.53;;;;;;;0.46;100.00;89837.47;5016016;28;20266;-90
2021/03/13 02:41:39;;;;;;;21.50;16.67;;;;;;;0.60;100.00;89786.88;5015881;28;20321;-92
2021/03/13 02:44:08;;;;;;;21.27;16.60;;;;;;;0.57;100.00;89771.91;5016365;28;20238;-91
2021/03/13 02:46:44;;;;;;;20.33;17.17;;;;;;;0.78;100.00;89733.16;5015937;28;20200;-90
2021/03/13 02:49:12;;;;;;;18.67;15.63;;;;;;;0.65;100.00;89823.03;5016346;28;20187;-90
2021/03/13 02:51:41;;;;;;;21.10;14.77;;;;;;;0.44;100.00;89925.47;5016395;28;20204;-89
2021/03/13 02:54:09;;;;;;;16.33;12.67;;;;;;;0.40;100.00;89910.75;5015534;28;20246;-91
2021/03/13 02:56:38;;;;;;;14.13;12.13;;;;;;;0.28;100.00;89892.91;5016169;28;20199;-91
2021/03/13 02:59:06;;;;;;;16.93;14.17;;;;;;;0.23;100.00;89839.47;5015930;28;20321;-91
2021/03/13 03:01:34;;;;;;;22.80;17.27;;;;;;;0.21;100.00;89776.25;5015953;28;20282;-91
2021/03/13 03:04:03;;;;;;;19.10;15.53;;;;;;;0.27;100.00;89709.91;5016046;28;20223;-91
2021/03/13 03:06:34;;;;;;;19.93;16.93;;;;;;;0.45;100.00;89626.78;5015874;28;20264;-90
2021/03/13 03:09:05;;;;;;;19.93;15.63;;;;;;;0.54;100.00;89596.06;5015931;28;20203;-89
2021/03/13 03:11:33;;;;;;;18.83;15.13;;;;;;;0.61;100.00;89575.91;5015554;28;20306;-89
2021/03/13 03:14:00;;;;;;;18.30;13.97;;;;;;;0.65;100.00;89600.16;5015494;28;20210;-90
2021/03/13 03:16:28;;;;;;;19.27;15.43;;;;;;;0.51;100.00;89679.19;5015724;28;20199;-89
2021/03/13 03:18:58;;;;;;;18.33;15.63;;;;;;;0.54;100.00;89700.09;5015645;28;20246;-90
2021/03/13 03:21:26;;;;;;;21.13;15.73;;;;;;;0.59;100.00;89710.44;5015836;28;20640;-89
2021/03/13 03:23:53;;;;;;;65.43;41.43;;;;;;;0.43;100.00;89757.94;5015593;28;20196;-89
2021/03/13 03:26:20;;;;;;;62.57;39.77;;;;;;;0.28;100.00;89783.72;5015212;28;20699;-91
2021/03/13 03:28:47;;;;;;;28.63;21.97;;;;;;;0.25;100.00;89761.03;5015273;28;20203;-92
2021/03/13 03:31:14;;;;;;;29.73;20.80;;;;;;;0.25;100.00;89736.00;5015285;28;20208;-91
2021/03/13 03:33:41;;;;;;;18.00;15.23;;;;;;;0.19;100.00;89748.09;5015340;28;20251;-91
2021/03/13 03:36:08;;;;;;;21.13;16.63;;;;;;;0.17;100.00;89719.22;5015093;28;20287;-91
2021/03/13 03:38:36;;;;;;;18.97;15.73;;;;;;;0.22;100.00;89669.41;5015013;28;20207;-89
2021/03/13 03:41:03;;;;;;;16.90;14.73;;;;;;;0.20;100.00;89651.59;5014770;28;20275;-89
2021/03/13 03:43:36;;;;;;;18.93;13.97;;;;;;;0.32;100.00;89617.78;5014976;28;20299;-90
2021/03/13 03:46:04;;;;;;;39.70;28.20;;;;;;;0.29;100.00;89628.63;5014858;28;20188;-90
2021/03/13 03:48:33;;;;;;;170.00;92.80;;;;;;;0.26;100.00;89620.63;5015104;28;20557;-91
2021/03/13 03:51:01;;;;;;;55.80;35.00;;;;;;;0.24;100.00;89595.06;5014893;28;20243;-90
2021/03/13 03:53:33;;;;;;;26.87;19.37;;;;;;;0.27;100.00;89578.28;5015144;28;20227;-90
2021/03/13 03:56:03;;;;;;;20.07;16.13;;;;;;;0.28;100.00;89582.41;5014706;28;20195;-91
2021/03/13 03:58:34;;;;;;;50.33;31.30;;;;;;;0.28;100.00;89596.13;5014590;28;20250;-90
2021/03/13 04:01:03;;;;;;;27.00;20.93;;;;;;;0.40;100.00;89573.38;5014803;28;20199;-90
2021/03/13 04:03:30;;;;;;;17.33;15.23;;;;;;;0.40;100.00;89603.56;5014522;28;20192;-89
2021/03/13 04:05:57;;;;;;;19.87;15.73;;;;;;;0.39;100.00;89627.84;5013704;28;20203;-89
2021/03/13 04:08:27;;;;;;;18.37;14.23;;;;;;;0.64;100.00;89604.56;5014344;28;20199;-90
2021/03/13 04:10:54;;;;;;;25.53;20.50;;;;;;;0.58;100.00;89739.88;5014337;28;20733;-90
2021/03/13 04:13:23;;;;;;;30.27;25.80;;;;;;;0.45;100.00;89851.38;5014437;28;20695;-91
2021/03/13 04:15:50;;;;;;;26.27;21.00;;;;;;;0.46;100.00;89871.81;5014767;28;20203;-89
2021/03/13 04:18:18;;;;;;;19.13;16.90;;;;;;;0.44;100.00;89894.50;5014809;28;20675;-90
2021/03/13 04:20:47;;;;;;;14.83;12.40;;;;;;;0.43;100.00;89920.59;5014654;28;20250;-90
2021/03/13 04:23:16;;;;;;;14.30;12.27;;;;;;;0.45;100.00;89910.75;5014313;28;20191;-91
2021/03/13 04:25:45;;;;;;;14.80;13.03;;;;;;;0.38;100.00;89898.13;5014199;28;20275;-90
2021/03/13 04:28:12;;;;;;;16.87;13.47;;;;;;;0.46;100.00;89871.81;5014114;28;20331;-90
2021/03/13 04:30:41;;;;;;;15.73;13.23;;;;;;;0.45;100.00;89900.44;5013963;28;20195;-91
2021/03/13 04:33:08;;;;;;;19.53;14.87;;;;;;;0.28;100.00;89951.47;5014283;28;20254;-90
2021/03/13 04:35:35;;;;;;;19.10;15.60;;;;;;;0.37;100.00;89913.84;5013870;28;20239;-89
2021/03/13 04:38:02;;;;;;;18.10;16.17;;;;;;;0.42;100.00;89917.22;5014138;28;20263;-89
2021/03/13 04:40:29;;;;;;;22.50;16.03;;;;;;;0.45;100.00;89931.41;5013752;28;20338;-89
2021/03/13 04:42:57;;;;;;;16.10;14.03;;;;;;;0.59;100.00;89906.69;5013829;28;20195;-90
2021/03/13 04:45:24;;;;;;;16.60;13.50;;;;;;;0.62;100.00;89923.47;5013836;28;20310;-90
2021/03/13 04:47:52;;;;;;;22.40;16.90;;;;;;;0.55;100.00;90002.97;5013898;28;20203;-89
2021/03/13 04:50:21;;;;;;;34.80;25.30;;;;;;;0.28;100.00;90073.59;5013877;28;20199;-90
2021/03/13 04:52:48;;;;;;;58.83;39.20;;;;;;;0.34;100.00;90043.41;5013723;28;20282;-90
2021/03/13 04:55:31;;;;;;;50.10;33.47;;;;;;;0.09;100.00;89391.28;5111214;27;20549;-91
2021/03/13 04:57:58;;;;;;;35.67;26.27;;;;;;;0.09;100.00;89445.47;5111181;28;20264;-90
2021/03/13 05:00:25;;;;;;;32.40;25.70;;;;;;;0.31;100.00;89420.06;5110849;28;20215;-90
2021/03/13 05:02:52;;;;;;;27.57;19.33;;;;;;;0.62;100.00;89387.13;5110893;28;20294;-90
2021/03/13 05:05:19;;;;;;;24.57;20.43;;;;;;;0.58;100.00;89483.47;5110515;28;20191;-92
2021/03/13 05:07:46;;;;;;;40.47;30.07;;;;;;;0.63;100.00;89537.69;5110725;28;20638;-91
2021/03/13 05:10:13;;;;;;;36.57;27.47;;;;;;;0.59;100.00;89614.13;5110845;28;20195;-92
2021/03/13 05:12:41;;;;;;;27.50;24.23;;;;;;;0.57;100.00;89666.03;5110746;28;20191;-93
2021/03/13 05:15:09;;;;;;;31.13;24.87;;;;;;;0.58;100.00;89683.06;5110298;28;20662;-92
2021/03/13 05:17:36;;;;;;;41.03;28.77;;;;;;;0.62;100.00;89676.34;5110265;28;20785;-90
2021/03/13 05:20:05;;;;;;;31.20;24.33;;;;;;;0.74;100.00;89663.16;5110285;28;20199;-92
2021/03/13 05:22:32;;;;;;;27.63;22.00;;;;;;;0.81;100.00;89675.81;5109896;28;20223;-91
2021/03/13 05:24:58;;;;;;;73.33;47.70;;;;;;;0.85;100.00;89700.09;5110159;28;20201;-91
2021/03/13 05:27:25;;;;;;;35.87;27.47;;;;;;;0.83;100.00;89712.47;5110341;28;20188;-93
2021/03/13 05:29:53;;;;;;;41.30;31.07;;;;;;;0.65;100.00;89749.94;5110288;28;20196;-93
2021/03/13 05:32:20;;;;;;;39.23;29.70;;;;;;;0.59;100.00;89741.44;5110150;28;20274;-94
2021/03/13 05:34:48;;;;;;;28.20;23.37;;;;;;;0.64;100.00;89683.84;5109651;28;20314;-94
2021/03/13 05:37:14;;;;;;;27.77;22.40;;;;;;;0.84;100.00;89647.66;5110237;28;20196;-94
2021/03/13 05:39:41;;;;;;;40.60;30.20;;;;;;;0.77;100.00;89667.03;5109999;28;20188;-96
2021/03/13 05:42:10;;;;;;;45.33;32.87;;;;;;;0.92;100.00;89621.25;5110215;28;20275;-95
2021/03/13 05:44:39;;;;;;;46.60;34.23;;;;;;;1.15;100.00;89612.16;5109811;28;20191;-95
2021/03/13 05:47:08;;;;;;;37.77;29.33;;;;;;;1.11;100.00;89652.47;5109779;28;20692;-91
2021/03/13 05:49:39;;;;;;;33.53;25.37;;;;;;;1.13;100.00;89665.91;5109729;28;20195;-92
2021/03/13 05:52:08;;;;;;;24.50;19.87;;;;;;;1.30;100.00;89667.41;5109698;28;20184;-91
2021/03/13 05:54:35;;;;;;;21.43;18.47;;;;;;;1.27;100.00;89781.66;5109486;28;20610;-90
2021/03/13 05:57:08;;;;;;;36.30;29.83;;;;;;;0.80;100.00;89896.41;5109925;28;20197;-91
2021/03/13 05:59:36;;;;;;;30.63;26.73;;;;;;;0.93;100.00;89852.75;5109916;28;20281;-91
2021/03/13 06:02:05;;;;;;;27.77;22.77;;;;;;;1.12;100.00;89836.75;5109533;28;20235;-89
2021/03/13 06:04:33;;;;;;;24.40;19.17;;;;;;;1.28;100.00;89822.78;5109806;28;20199;-92
2021/03/13 06:07:00;;;;;;;21.00;18.27;;;;;;;1.32;100.00;89857.41;5095449;28;20282;-92
2021/03/13 06:09:27;;;;;;;22.67;19.07;;;;;;;1.36;100.00;89886.13;5095792;28;20200;-92
2021/03/13 06:11:54;;;;;;;130.43;66.10;;;;;;;1.39;100.00;89919.97;5095730;28;20200;-91
2021/03/13 06:14:21;;;;;;;97.53;60.13;;;;;;;1.55;100.00;89881.94;5095423;28;20220;-92
2021/03/13 06:16:48;;;;;;;76.57;49.97;;;;;;;1.57;100.00;89900.56;5095649;28;20208;-92
2021/03/13 06:19:15;;;;;;;40.70;29.87;;;;;;;1.65;100.00;89858.66;5095741;28;20283;-89
2021/03/13 06:21:43;;;;;;;24.73;20.47;;;;;;;1.79;100.00;89852.94;5095568;28;20279;-89
2021/03/13 06:24:16;;;;;;;27.33;20.80;;;;;;;1.63;100.00;89915.06;5095301;28;20189;-88
2021/03/13 06:27:01;;;;;;;26.13;20.90;;;;;;;1.72;100.00;89891.25;5095341;28;20725;-89
2021/03/13 06:29:29;;;;;;;36.73;26.20;;;;;;;1.94;100.00;89919.38;5095366;28;20262;-88
2021/03/13 06:32:05;;;;;;;32.83;24.37;;;;;;;1.88;100.00;89994.47;5095258;28;20234;-89
2021/03/13 06:34:32;;;;;;;30.63;23.10;;;;;;;1.93;100.00;90016.97;5095356;28;20302;-89
2021/03/13 06:37:22;;;;;;;28.23;21.60;;;;;;;2.11;100.00;89977.63;5095093;28;20665;-90
2021/03/13 06:39:49;;;;;;;50.47;40.20;;;;;;;2.43;100.00;89958.38;5095152;28;20199;-89
2021/03/13 06:42:21;;;;;;;49.67;37.43;;;;;;;2.39;100.00;89993.63;5095010;28;20196;-88
2021/03/13 06:44:56;;;;;;;34.63;28.57;;;;;;;2.33;100.00;90010.97;5094964;28;20249;-90
2021/03/13 06:47:30;;;;;;;39.37;32.83;;;;;;;2.36;100.00;90004.50;5094938;28;20204;-90
2021/03/13 06:50:12;;;;;;;34.00;28.67;;;;;;;2.57;100.00;89958.59;5094862;28;20286;-89
2021/03/13 06:52:40;;;;;;;30.90;24.40;;;;;;;2.73;100.00;89954.88;5094580;28;20283;-88
2021/03/13 06:55:14;;;;;;;32.40;22.63;;;;;;;2.96;100.00;89976.06;5094348;28;20258;-87
2021/03/13 06:57:43;;;;;;;64.60;44.30;;;;;;;3.01;100.00;90100.44;5094611;28;20227;-88
2021/03/13 07:00:11;;;;;;;222.77;119.60;;;;;;;3.16;100.00;90105.59;5094318;28;20188;-88
2021/03/13 07:02:38;;;;;;;189.77;105.63;;;;;;;3.21;100.00;90122.97;5094785;28;20250;-88
2021/03/13 07:05:08;;;;;;;58.80;39.37;;;;;;;3.44;100.00;90124.19;5094312;28;20192;-87
2021/03/13 07:07:35;;;;;;;76.13;50.23;;;;;;;3.81;100.00;90106.34;5094689;28;20562;-88
2021/03/13 07:10:05;;;;;;;51.63;38.50;;;;;;;4.17;100.00;90185.88;5094292;28;20200;-87
2021/03/13 07:12:35;;;;;;;29.10;22.13;;;;;;;4.51;100.00;90422.41;5094124;28;20193;-88
2021/03/13 07:15:24;;;;;;;39.17;34.10;;;;;;;4.94;100.00;90681.00;5094134;28;20216;-87
2021/03/13 07:17:52;;;;;;;104.70;60.30;;;;;;;5.09;100.00;90943.00;5090582;28;20200;-89
2021/03/13 07:20:21;;;;;;;48.97;28.73;;;;;;;5.39;100.00;91105.50;5094283;28;20690;-89
2021/03/13 07:22:51;;;;;;;32.57;23.47;;;;;;;5.59;100.00;91305.31;5091988;28;20204;-86
2021/03/13 07:25:21;;;;;;;46.20;33.27;;;;;;;5.68;100.00;91392.34;5094362;28;20585;-90
2021/03/13 07:27:54;;;;;;;25.27;19.73;;;;;;;5.88;100.00;91491.53;5094516;28;20232;-89
2021/03/13 07:30:21;;;;;;;33.53;25.70;;;;;;;5.87;100.00;91612.41;5093776;28;20275;-86
2021/03/13 07:32:51;;;;;;;32.73;23.90;;;;;;;5.77;100.00;91726.91;5094340;28;20668;-86
2021/03/13 07:35:21;;;;;;;67.43;45.97;;;;;;;5.82;100.00;91745.22;5093885;28;20799;-93
2021/03/13 07:37:53;;;;;;;17.67;14.63;;;;;;;5.80;100.00;91767.34;5093916;28;20181;-87
2021/03/13 07:40:22;;;;;;;16.43;13.23;;;;;;;5.87;100.00;91828.66;5094136;28;20264;-86
2021/03/13 07:42:50;;;;;;;146.30;80.77;;;;;;;5.81;100.00;91910.38;5094040;28;20196;-92
2021/03/13 07:45:18;;;;;;;46.80;32.67;;;;;;;6.05;100.00;91899.84;5093818;28;20200;-91
2021/03/13 07:47:45;;;;;;;48.97;35.90;;;;;;;6.31;100.00;91919.25;5093557;28;20227;-89
2021/03/13 07:50:13;;;;;;;21.13;18.47;;;;;;;6.34;100.00;91950.88;5094399;28;20287;-90
2021/03/13 07:52:42;;;;;;;25.07;20.53;;;;;;;6.41;100.00;91925.41;5093900;28;20200;-92
2021/03/13 07:55:12;;;;;;;19.83;16.17;;;;;;;6.63;100.00;91915.00;5093830;28;20231;-91
2021/03/13 07:57:42;;;;;;;19.03;16.80;;;;;;;6.82;100.00;91952.06;5094079;28;20199;-91
2021/03/13 08:00:10;;;;;;;18.17;15.97;;;;;;;6.95;100.00;92005.72;5093943;28;20220;-92
2021/03/13 08:02:46;;;;;;;14.70;13.20;;;;;;;7.01;100.00;92038.69;5094235;28;20203;-93
2021/03/13 08:05:17;;;;;;;18.20;13.83;;;;;;;7.31;100.00;92064.44;5094018;28;20184;-90
2021/03/13 08:08:08;;;;;;;20.30;14.47;;;;;;;7.50;100.00;92105.94;5093628;28;20191;-92
2021/03/13 08:10:53;;;;;;;14.63;13.27;;;;;;;7.53;100.00;92176.78;5093396;28;20196;-91
2021/03/13 08:13:50;;;;;;;22.10;16.63;;;;;;;7.43;100.00;92168.81;5093729;28;20196;-91
2021/03/13 08:16:21;;;;;;;19.67;17.27;;;;;;;7.54;100.00;92191.41;5093389;28;20676;-91
2021/03/13 08:18:49;;;;;;;14.00;12.50;;;;;;;7.61;100.00;92209.53;5093423;28;20184;-91
2021/03/13 08:21:44;;;;;;;18.97;15.73;;;;;;;7.28;100.00;92174.59;5093401;28;20256;-90
2021/03/13 08:24:14;;;;;;;21.77;15.47;;;;;;;7.31;100.00;92137.56;5069047;28;20196;-90
2021/03/13 08:27:09;;;;;;;17.40;15.13;;;;;;;7.21;100.00;92118.34;5093159;28;20661;-91
2021/03/13 08:30:16;;;;;;;14.77;13.27;;;;;;;7.08;100.00;92080.28;5092614;28;20686;-91
2021/03/13 08:33:05;;;;;;;18.97;15.73;;;;;;;6.95;100.00;92017.97;5093362;28;20333;-91
2021/03/13 08:35:46;;;;;;;26.20;21.07;;;;;;;6.93;100.00;92010.41;5093237;28;20211;-90
2021/03/13 08:38:14;;;;;;;21.50;18.53;;;;;;;6.97;100.00;91979.38;5093103;28;20185;-91
2021/03/13 08:40:50;;;;;;;24.77;20.10;;;;;;;6.75;100.00;91954.03;5092954;28;20287;-90
2021/03/13 08:43:59;;;;;;;19.03;16.77;;;;;;;6.86;100.00;91903.56;5093230;28;20601;-91
2021/03/13 08:46:46;;;;;;;16.87;14.33;;;;;;;6.64;100.00;91929.63;5051002;28;20193;-89
2021/03/13 08:49:35;;;;;;;26.23;18.40;;;;;;;6.51;100.00;91969.09;5050925;28;20182;-89
2021/03/13 08:52:21;;;;;;;19.40;17.40;;;;;;;6.48;100.00;91959.16;5051230;28;20600;-88
2021/03/13 08:54:50;;;;;;;20.47;17.37;;;;;;;6.49;100.00;91926.81;5050777;28;20225;-88
2021/03/13 08:57:19;;;;;;;19.03;16.43;;;;;;;6.39;100.00;91963.97;5050970;28;20201;-88
2021/03/13 08:59:59;;;;;;;22.83;16.90;;;;;;;6.29;100.00;91947.38;5050959;28;20279;-88
2021/03/13 09:02:28;;;;;;;23.00;18.90;;;;;;;6.47;100.00;91910.59;5051063;28;20668;-88
2021/03/13 09:05:07;;;;;;;19.20;15.67;;;;;;;6.54;100.00;91905.22;5050655;28;20198;-88
2021/03/13 09:07:34;;;;;;;18.00;15.90;;;;;;;6.53;100.00;91950.59;5051192;28;20201;-88
2021/03/13 09:10:00;;;;;;;28.33;21.43;;;;;;;6.66;100.00;91964.09;5051098;28;20194;-88
2021/03/13 09:12:30;;;;;;;23.90;17.70;;;;;;;6.85;100.00;91992.53;5051042;28;20698;-89
2021/03/13 09:14:59;;;;;;;14.83;13.27;;;;;;;6.88;100.00;92080.78;5051769;28;20669;-88
2021/03/13 09:17:29;;;;;;;14.80;12.93;;;;;;;7.28;100.00;92113.75;5077619;28;20192;-88
2021/03/13 09:20:00;;;;;;;15.87;13.73;;;;;;;7.43;100.00;92160.19;5092826;28;20228;-89
2021/03/13 09:22:27;;;;;;;16.80;13.37;;;;;;;7.33;100.00;92253.03;5092797;28;20172;-88
2021/03/13 09:24:57;;;;;;;13.33;11.93;;;;;;;7.50;100.00;92299.28;5092869;28;20282;-88
2021/03/13 09:27:25;;;;;;;18.47;15.03;;;;;;;7.59;100.00;92327.38;5092830;28;20208;-89
2021/03/13 09:29:53;;;;;;;15.40;13.90;;;;;;;7.48;100.00;92440.59;5092826;28;20568;-88
2021/03/13 09:32:21;;;;;;;18.40;14.70;;;;;;;7.89;100.00;92383.00;5092589;28;20250;-88
2021/03/13 09:34:51;;;;;;;15.70;13.07;;;;;;;7.49;100.00;92499.66;5092696;28;20316;-88
2021/03/13 09:37:19;;;;;;;18.87;16.67;;;;;;;7.49;100.00;92442.19;5092367;28;20325;-88
2021/03/13 09:39:48;;;;;;;16.97;14.27;;;;;;;7.65;100.00;92464.13;5092528;28;20733;-88
2021/03/13 09:42:17;;;;;;;16.20;14.07;;;;;;;7.65;100.00;92482.44;5096311;28;20200;-88
2021/03/13 09:44:48;;;;;;;14.60;13.07;;;;;;;7.67;100.00;92490.84;5096466;28;20214;-88
2021/03/13 09:47:17;;;;;;;15.63;13.97;;;;;;;7.75;100.00;92487.84;5093449;28;20200;-86
2021/03/13 09:49:54;;;;;;;16.97;14.30;;;;;;;7.68;100.00;92536.84;5097651;28;20196;-95
2021/03/13 09:52:25;;;;;;;17.23;13.30;;;;;;;7.70;100.00;92554.94;5096621;28;20230;-95
2021/03/13 09:55:03;;;;;;;17.97;13.57;;;;;;;7.74;100.00;92553.44;5095562;28;20228;-87
2021/03/13 09:57:31;;;;;;;15.17;13.20;;;;;;;7.88;100.00;92546.91;5096471;28;20264;-91
2021/03/13 10:02:28;;;;;;;18.07;12.93;;;;;;;8.27;100.00;92643.88;5017030;28;20219;-85
2021/03/13 10:04:56;;;;;;;19.13;13.00;;;;;;;8.68;100.00;92676.06;5015023;28;20196;-84
2021/03/13 10:07:24;;;;;;;16.97;12.00;;;;;;;9.10;100.00;92872.22;5015237;28;20254;-89
2021/03/13 10:09:56;;;;;;;14.87;13.33;;;;;;;10.24;100.00;92967.38;5015804;28;20187;-88
2021/03/13 10:12:28;;;;;;;14.33;12.13;;;;;;;10.18;100.00;93133.69;5015762;28;20191;-93
2021/03/13 10:14:55;;;;;;;15.70;12.57;;;;;;;10.72;100.00;93201.66;5017478;28;20233;-95
2021/03/13 10:17:22;;;;;;;13.53;12.20;;;;;;;10.67;100.00;93372.31;5017231;28;20187;-95
2021/03/13 10:19:49;;;;;;;13.73;12.03;;;;;;;11.19;100.00;93327.66;5017185;28;20199;-95
2021/03/13 10:22:21;;;;;;;12.33;11.13;;;;;;;10.51;100.00;93520.84;5017268;28;20209;-95
2021/03/13 10:24:50;;;;;;;14.67;12.23;;;;;;;10.51;100.00;93539.22;5017045;28;20211;-95
2021/03/13 10:27:28;;;;;;;11.03;9.93;;;;;;;11.51;100.00;93590.19;5016464;28;20684;-95
2021/03/13 10:29:57;;;;;;;11.27;9.30;;;;;;;11.38;100.00;93812.91;5015768;28;20210;-96
2021/03/13 10:32:26;;;;;;;11.37;9.60;;;;;;;11.00;100.00;93752.75;5016816;28;20586;-95
2021/03/13 10:35:07;;;;;;;11.87;9.43;;;;;;;10.83;100.00;93794.59;5015175;28;20232;-95
2021/03/13 10:37:37;;;;;;;9.50;8.60;;;;;;;11.19;100.00;93892.88;5015357;28;20207;-95
2021/03/13 10:40:05;;;;;;;9.77;8.77;;;;;;;11.48;100.00;93836.06;5015269;28;20257;-95
2021/03/13 10:42:34;;;;;;;10.77;9.67;;;;;;;11.07;100.00;93840.22;5015263;28;20311;-78
2021/03/13 10:45:17;;;;;;;11.73;9.77;;;;;;;11.00;100.00;93823.72;5014123;28;20681;-84
2021/03/13 10:47:45;;;;;;;32.00;24.27;;;;;;;10.81;100.00;93703.91;5012711;28;20206;-85
2021/03/13 10:50:12;;;;;;;15.87;14.27;;;;;;;10.88;100.00;93591.63;5014228;28;20199;-85
2021/03/13 10:52:41;;;;;;;38.27;29.80;;;;;;;10.98;100.00;93585.78;5014144;28;20203;-85
2021/03/13 10:55:08;;;;;;;29.70;24.77;;;;;;;10.93;100.00;93649.56;5014110;28;20227;-86
2021/03/13 10:57:36;;;;;;;47.10;31.10;;;;;;;11.04;100.00;93609.34;5013892;28;20200;-86
2021/03/13 11:00:07;;;;;;;39.97;24.93;;;;;;;10.84;100.00;93556.31;5014054;28;20309;-86
2021/03/13 11:02:34;;;;;;;49.83;32.57;;;;;;;10.87;100.00;93377.19;4975027;28;20269;-86
2021/03/13 11:05:01;;;;;;;25.60;19.90;;;;;;;10.87;100.00;93406.09;4975282;28;20197;-86
2021/03/13 11:07:32;;;;;;;85.20;40.43;;;;;;;10.86;100.00;93412.38;4975063;28;20200;-87
2021/03/13 11:10:00;;;;;;;91.27;41.47;;;;;;;10.50;100.00;93406.34;4975241;28;20196;-87
2021/03/13 11:12:27;;;;;;;97.07;49.67;;;;;;;10.31;100.00;93357.56;4975338;28;20702;-87
2021/03/13 11:14:53;;;;;;;54.93;32.43;;;;;;;10.84;100.00;93262.03;4975011;28;20295;-87
2021/03/13 11:17:20;;;;;;;35.57;28.80;;;;;;;10.80;100.00;93405.41;4975140;28;20197;-87
2021/03/13 11:19:47;;;;;;;19.93;17.30;;;;;;;10.90;100.00;93464.22;4975802;28;20225;-91
2021/03/13 11:22:14;;;;;;;21.40;18.10;;;;;;;11.35;100.00;93497.00;4975983;28;20674;-89
2021/03/13 11:24:41;;;;;;;19.23;16.63;;;;;;;11.37;100.00;93593.03;4975734;28;20630;-90
2021/03/13 11:27:09;;;;;;;21.13;17.67;;;;;;;11.36;100.00;93538.03;4975270;28;20204;-90
2021/03/13 11:29:36;;;;;;;20.80;18.73;;;;;;;11.18;100.00;93460.09;4975371;28;20281;-90
2021/03/13 11:32:03;;;;;;;22.93;19.77;;;;;;;10.88;100.00;93436.59;4975190;28;20197;-89